sensor_id;sensor_type;location;lat;lon;timestamp;P1;durP1;ratioP1;P2;durP2;ratioP2
16766;SDS011;8501;49.926;8.404;2024-03-22T00:01:46;19.50;;;11.37;;
16766;SDS011;8501;49.926;8.404;2024-03-22T00:04:12;17.13;;;11.07;;
16766;SDS011;8501;49.926;8.404;2024-03-22T00:06:38;21.57;;;11.90;;
16766;SDS011;8501;49.926;8.404;2024-03-22T00:09:05;20.47;;;11.23;;
16766;SDS011;8501;49.926;8.404;2024-03-22T00:11:31;20.07;;;11.13;;
16766;SDS011;8501;49.926;8.404;2024-03-22T00:13:57;20.27;;;11.23;;
16766;SDS011;8501;49.926;8.404;2024-03-22T00:16:22;19.20;;;11.57;;
16766;SDS011;8501;49.926;8.404;2024-03-22T00:18:48;20.60;;;11.83;;
16766;SDS011;8501;49.926;8.404;2024-03-22T00:21:13;21.23;;;11.73;;
16766;SDS011;8501;49.926;8.404;2024-03-22T00:23:39;20.77;;;11.40;;
16766;SDS011;8501;49.926;8.404;2024-03-22T00:26:04;19.80;;;11.57;;
16766;SDS011;8501;49.926;8.404;2024-03-22T00:28:30;18.60;;;11.20;;
16766;SDS011;8501;49.926;8.404;2024-03-22T00:30:55;20.87;;;11.60;;
16766;SDS011;8501;49.926;8.404;2024-03-22T00:33:21;19.63;;;11.70;;
16766;SDS011;8501;49.926;8.404;2024-03-22T00:35:47;19.13;;;11.80;;
16766;SDS011;8501;49.926;8.404;2024-03-22T00:38:12;20.83;;;11.53;;
16766;SDS011;8501;49.926;8.404;2024-03-22T00:40:38;20.30;;;11.83;;
16766;SDS011;8501;49.926;8.404;2024-03-22T00:43:03;23.57;;;11.83;;
16766;SDS011;8501;49.926;8.404;2024-03-22T00:45:29;21.90;;;11.80;;
16766;SDS011;8501;49.926;8.404;2024-03-22T00:47:54;20.53;;;12.13;;
16766;SDS011;8501;49.926;8.404;2024-03-22T00:50:20;23.83;;;12.80;;
16766;SDS011;8501;49.926;8.404;2024-03-22T00:52:45;21.00;;;12.40;;
16766;SDS011;8501;49.926;8.404;2024-03-22T00:55:11;25.43;;;13.33;;
16766;SDS011;8501;49.926;8.404;2024-03-22T00:57:36;26.77;;;13.30;;
16766;SDS011;8501;49.926;8.404;2024-03-22T01:00:02;22.07;;;13.13;;
16766;SDS011;8501;49.926;8.404;2024-03-22T01:02:29;21.97;;;13.07;;
16766;SDS011;8501;49.926;8.404;2024-03-22T01:04:55;23.67;;;14.50;;
16766;SDS011;8501;49.926;8.404;2024-03-22T01:07:20;22.80;;;14.00;;
16766;SDS011;8501;49.926;8.404;2024-03-22T01:09:46;26.97;;;14.37;;
16766;SDS011;8501;49.926;8.404;2024-03-22T01:12:11;22.13;;;13.23;;
16766;SDS011;8501;49.926;8.404;2024-03-22T01:14:37;22.10;;;13.20;;
16766;SDS011;8501;49.926;8.404;2024-03-22T01:17:02;21.53;;;13.13;;
16766;SDS011;8501;49.926;8.404;2024-03-22T01:19:28;20.37;;;11.67;;
16766;SDS011;8501;49.926;8.404;2024-03-22T01:21:53;17.93;;;11.23;;
16766;SDS011;8501;49.926;8.404;2024-03-22T01:24:19;20.60;;;11.10;;
16766;SDS011;8501;49.926;8.404;2024-03-22T01:26:44;21.93;;;11.80;;
16766;SDS011;8501;49.926;8.404;2024-03-22T01:29:10;20.23;;;11.87;;
16766;SDS011;8501;49.926;8.404;2024-03-22T01:31:36;22.87;;;12.60;;
16766;SDS011;8501;49.926;8.404;2024-03-22T01:34:01;22.27;;;13.00;;
16766;SDS011;8501;49.926;8.404;2024-03-22T01:36:27;26.47;;;14.50;;
16766;SDS011;8501;49.926;8.404;2024-03-22T01:38:52;25.13;;;13.67;;
16766;SDS011;8501;49.926;8.404;2024-03-22T01:41:18;26.43;;;13.37;;
16766;SDS011;8501;49.926;8.404;2024-03-22T01:43:44;23.67;;;13.40;;
16766;SDS011;8501;49.926;8.404;2024-03-22T01:46:09;25.03;;;13.03;;
16766;SDS011;8501;49.926;8.404;2024-03-22T01:48:35;23.73;;;13.77;;
16766;SDS011;8501;49.926;8.404;2024-03-22T01:51:01;25.53;;;14.30;;
16766;SDS011;8501;49.926;8.404;2024-03-22T01:53:29;26.30;;;13.67;;
16766;SDS011;8501;49.926;8.404;2024-03-22T01:55:55;25.03;;;14.63;;
16766;SDS011;8501;49.926;8.404;2024-03-22T01:58:21;27.93;;;14.67;;
16766;SDS011;8501;49.926;8.404;2024-03-22T02:00:47;24.13;;;13.77;;
16766;SDS011;8501;49.926;8.404;2024-03-22T02:03:12;28.10;;;13.90;;
16766;SDS011;8501;49.926;8.404;2024-03-22T02:05:38;23.77;;;13.50;;
16766;SDS011;8501;49.926;8.404;2024-03-22T02:08:03;25.83;;;14.27;;
16766;SDS011;8501;49.926;8.404;2024-03-22T02:10:29;26.47;;;14.17;;
16766;SDS011;8501;49.926;8.404;2024-03-22T02:12:55;25.73;;;14.20;;
16766;SDS011;8501;49.926;8.404;2024-03-22T02:15:21;25.80;;;13.50;;
16766;SDS011;8501;49.926;8.404;2024-03-22T02:17:47;29.13;;;14.57;;
16766;SDS011;8501;49.926;8.404;2024-03-22T02:20:12;28.40;;;13.93;;
16766;SDS011;8501;49.926;8.404;2024-03-22T02:22:38;26.50;;;13.87;;
16766;SDS011;8501;49.926;8.404;2024-03-22T02:25:03;33.60;;;16.37;;
16766;SDS011;8501;49.926;8.404;2024-03-22T02:27:29;34.00;;;19.73;;
16766;SDS011;8501;49.926;8.404;2024-03-22T02:29:55;31.23;;;16.10;;
16766;SDS011;8501;49.926;8.404;2024-03-22T02:32:21;28.80;;;15.10;;
16766;SDS011;8501;49.926;8.404;2024-03-22T02:34:46;29.10;;;15.47;;
16766;SDS011;8501;49.926;8.404;2024-03-22T02:37:12;26.47;;;15.13;;
16766;SDS011;8501;49.926;8.404;2024-03-22T02:39:38;29.50;;;15.30;;
16766;SDS011;8501;49.926;8.404;2024-03-22T02:42:03;31.27;;;16.13;;
16766;SDS011;8501;49.926;8.404;2024-03-22T02:44:29;30.30;;;15.70;;
16766;SDS011;8501;49.926;8.404;2024-03-22T02:46:54;28.17;;;14.87;;
16766;SDS011;8501;49.926;8.404;2024-03-22T02:49:20;25.47;;;15.23;;
16766;SDS011;8501;49.926;8.404;2024-03-22T02:51:45;27.90;;;15.60;;
16766;SDS011;8501;49.926;8.404;2024-03-22T02:54:11;30.27;;;15.87;;
16766;SDS011;8501;49.926;8.404;2024-03-22T02:56:36;29.70;;;16.00;;
16766;SDS011;8501;49.926;8.404;2024-03-22T02:59:02;32.03;;;15.93;;
16766;SDS011;8501;49.926;8.404;2024-03-22T03:01:27;31.37;;;15.77;;
16766;SDS011;8501;49.926;8.404;2024-03-22T03:03:53;41.77;;;21.03;;
16766;SDS011;8501;49.926;8.404;2024-03-22T03:06:18;40.03;;;20.70;;
16766;SDS011;8501;49.926;8.404;2024-03-22T03:08:45;32.10;;;16.53;;
16766;SDS011;8501;49.926;8.404;2024-03-22T03:11:10;31.63;;;15.63;;
16766;SDS011;8501;49.926;8.404;2024-03-22T03:13:36;29.77;;;15.90;;
16766;SDS011;8501;49.926;8.404;2024-03-22T03:16:02;28.90;;;16.73;;
16766;SDS011;8501;49.926;8.404;2024-03-22T03:18:28;32.60;;;16.70;;
16766;SDS011;8501;49.926;8.404;2024-03-22T03:20:53;33.60;;;16.03;;
16766;SDS011;8501;49.926;8.404;2024-03-22T03:23:19;31.47;;;16.40;;
16766;SDS011;8501;49.926;8.404;2024-03-22T03:25:45;33.43;;;16.97;;
16766;SDS011;8501;49.926;8.404;2024-03-22T03:28:11;31.03;;;15.93;;
16766;SDS011;8501;49.926;8.404;2024-03-22T03:30:38;32.50;;;17.33;;
16766;SDS011;8501;49.926;8.404;2024-03-22T03:33:03;32.60;;;16.33;;
16766;SDS011;8501;49.926;8.404;2024-03-22T03:35:29;35.23;;;17.33;;
16766;SDS011;8501;49.926;8.404;2024-03-22T03:37:55;32.17;;;17.20;;
16766;SDS011;8501;49.926;8.404;2024-03-22T03:40:20;31.77;;;16.63;;
16766;SDS011;8501;49.926;8.404;2024-03-22T03:42:49;34.00;;;16.37;;
16766;SDS011;8501;49.926;8.404;2024-03-22T03:45:15;31.70;;;16.77;;
16766;SDS011;8501;49.926;8.404;2024-03-22T03:47:40;31.87;;;16.37;;
16766;SDS011;8501;49.926;8.404;2024-03-22T03:50:06;32.80;;;16.03;;
16766;SDS011;8501;49.926;8.404;2024-03-22T03:52:32;31.60;;;15.60;;
16766;SDS011;8501;49.926;8.404;2024-03-22T03:54:57;30.00;;;16.20;;
16766;SDS011;8501;49.926;8.404;2024-03-22T03:57:23;28.37;;;15.60;;
16766;SDS011;8501;49.926;8.404;2024-03-22T03:59:48;26.97;;;15.00;;
16766;SDS011;8501;49.926;8.404;2024-03-22T04:02:14;31.97;;;15.93;;
16766;SDS011;8501;49.926;8.404;2024-03-22T04:04:39;29.77;;;16.87;;
16766;SDS011;8501;49.926;8.404;2024-03-22T04:07:05;31.93;;;15.90;;
16766;SDS011;8501;49.926;8.404;2024-03-22T04:09:30;31.50;;;16.53;;
16766;SDS011;8501;49.926;8.404;2024-03-22T04:11:56;29.53;;;16.63;;
16766;SDS011;8501;49.926;8.404;2024-03-22T04:14:23;29.40;;;15.83;;
16766;SDS011;8501;49.926;8.404;2024-03-22T04:16:50;31.50;;;16.33;;
16766;SDS011;8501;49.926;8.404;2024-03-22T04:19:15;33.93;;;16.33;;
16766;SDS011;8501;49.926;8.404;2024-03-22T04:21:42;32.47;;;16.80;;
16766;SDS011;8501;49.926;8.404;2024-03-22T04:24:07;31.63;;;17.10;;
16766;SDS011;8501;49.926;8.404;2024-03-22T04:26:33;29.40;;;16.43;;
16766;SDS011;8501;49.926;8.404;2024-03-22T04:28:58;32.73;;;16.23;;
16766;SDS011;8501;49.926;8.404;2024-03-22T04:31:24;30.20;;;16.53;;
16766;SDS011;8501;49.926;8.404;2024-03-22T04:33:49;32.50;;;16.40;;
16766;SDS011;8501;49.926;8.404;2024-03-22T04:36:15;32.63;;;16.50;;
16766;SDS011;8501;49.926;8.404;2024-03-22T04:38:41;29.40;;;15.50;;
16766;SDS011;8501;49.926;8.404;2024-03-22T04:41:06;28.23;;;15.87;;
16766;SDS011;8501;49.926;8.404;2024-03-22T04:43:32;32.00;;;15.70;;
16766;SDS011;8501;49.926;8.404;2024-03-22T04:45:57;31.33;;;17.03;;
16766;SDS011;8501;49.926;8.404;2024-03-22T04:48:23;28.87;;;16.20;;
16766;SDS011;8501;49.926;8.404;2024-03-22T04:50:49;27.97;;;15.00;;
16766;SDS011;8501;49.926;8.404;2024-03-22T04:53:16;26.73;;;15.30;;
16766;SDS011;8501;49.926;8.404;2024-03-22T04:55:45;27.80;;;15.07;;
16766;SDS011;8501;49.926;8.404;2024-03-22T04:58:14;27.43;;;14.73;;
16766;SDS011;8501;49.926;8.404;2024-03-22T05:00:41;32.83;;;16.00;;
16766;SDS011;8501;49.926;8.404;2024-03-22T05:03:07;28.30;;;15.53;;
16766;SDS011;8501;49.926;8.404;2024-03-22T05:05:33;26.53;;;14.97;;
16766;SDS011;8501;49.926;8.404;2024-03-22T05:08:00;25.90;;;14.97;;
16766;SDS011;8501;49.926;8.404;2024-03-22T05:10:25;30.53;;;15.47;;
16766;SDS011;8501;49.926;8.404;2024-03-22T05:12:51;30.73;;;15.30;;
16766;SDS011;8501;49.926;8.404;2024-03-22T05:15:16;31.00;;;16.20;;
16766;SDS011;8501;49.926;8.404;2024-03-22T05:17:42;31.83;;;16.53;;
16766;SDS011;8501;49.926;8.404;2024-03-22T05:20:08;29.40;;;15.83;;
16766;SDS011;8501;49.926;8.404;2024-03-22T05:22:37;32.37;;;15.60;;
16766;SDS011;8501;49.926;8.404;2024-03-22T05:25:02;28.83;;;16.63;;
16766;SDS011;8501;49.926;8.404;2024-03-22T05:27:30;28.53;;;15.17;;
16766;SDS011;8501;49.926;8.404;2024-03-22T05:29:56;29.17;;;15.80;;
16766;SDS011;8501;49.926;8.404;2024-03-22T05:32:22;28.47;;;15.10;;
16766;SDS011;8501;49.926;8.404;2024-03-22T05:34:47;26.93;;;15.27;;
16766;SDS011;8501;49.926;8.404;2024-03-22T05:37:13;32.27;;;16.53;;
16766;SDS011;8501;49.926;8.404;2024-03-22T05:39:38;30.87;;;17.53;;
16766;SDS011;8501;49.926;8.404;2024-03-22T05:42:05;30.00;;;16.70;;
16766;SDS011;8501;49.926;8.404;2024-03-22T05:44:31;30.93;;;16.03;;
16766;SDS011;8501;49.926;8.404;2024-03-22T05:46:57;28.07;;;15.63;;
16766;SDS011;8501;49.926;8.404;2024-03-22T05:49:22;29.03;;;15.63;;
16766;SDS011;8501;49.926;8.404;2024-03-22T05:51:48;29.53;;;16.00;;
16766;SDS011;8501;49.926;8.404;2024-03-22T05:54:14;28.73;;;15.47;;
16766;SDS011;8501;49.926;8.404;2024-03-22T05:56:39;27.47;;;15.90;;
16766;SDS011;8501;49.926;8.404;2024-03-22T05:59:05;28.90;;;15.67;;
16766;SDS011;8501;49.926;8.404;2024-03-22T06:01:31;28.00;;;14.93;;
16766;SDS011;8501;49.926;8.404;2024-03-22T06:03:57;26.90;;;14.93;;
16766;SDS011;8501;49.926;8.404;2024-03-22T06:06:23;29.83;;;16.33;;
16766;SDS011;8501;49.926;8.404;2024-03-22T06:08:51;27.87;;;15.20;;
16766;SDS011;8501;49.926;8.404;2024-03-22T06:11:22;27.87;;;15.20;;
16766;SDS011;8501;49.926;8.404;2024-03-22T06:13:47;25.93;;;15.03;;
16766;SDS011;8501;49.926;8.404;2024-03-22T06:16:13;26.07;;;14.63;;
16766;SDS011;8501;49.926;8.404;2024-03-22T06:18:39;26.57;;;15.63;;
16766;SDS011;8501;49.926;8.404;2024-03-22T06:21:05;29.17;;;14.53;;
16766;SDS011;8501;49.926;8.404;2024-03-22T06:23:31;27.60;;;15.00;;
16766;SDS011;8501;49.926;8.404;2024-03-22T06:25:57;25.40;;;14.20;;
16766;SDS011;8501;49.926;8.404;2024-03-22T06:28:23;25.57;;;14.70;;
16766;SDS011;8501;49.926;8.404;2024-03-22T06:30:49;24.10;;;13.73;;
16766;SDS011;8501;49.926;8.404;2024-03-22T06:33:15;23.70;;;12.80;;
16766;SDS011;8501;49.926;8.404;2024-03-22T06:35:41;25.33;;;13.93;;
16766;SDS011;8501;49.926;8.404;2024-03-22T06:38:06;25.23;;;13.50;;
16766;SDS011;8501;49.926;8.404;2024-03-22T06:40:32;23.07;;;13.27;;
16766;SDS011;8501;49.926;8.404;2024-03-22T06:42:58;23.87;;;13.53;;
16766;SDS011;8501;49.926;8.404;2024-03-22T06:45:23;24.83;;;13.47;;
16766;SDS011;8501;49.926;8.404;2024-03-22T06:47:49;24.23;;;13.47;;
16766;SDS011;8501;49.926;8.404;2024-03-22T06:50:14;21.53;;;12.77;;
16766;SDS011;8501;49.926;8.404;2024-03-22T06:52:42;20.63;;;12.63;;
16766;SDS011;8501;49.926;8.404;2024-03-22T06:55:08;22.07;;;12.70;;
16766;SDS011;8501;49.926;8.404;2024-03-22T06:57:33;22.10;;;13.00;;
16766;SDS011;8501;49.926;8.404;2024-03-22T06:59:59;22.37;;;12.23;;
16766;SDS011;8501;49.926;8.404;2024-03-22T07:02:25;22.97;;;12.60;;
16766;SDS011;8501;49.926;8.404;2024-03-22T07:04:50;21.20;;;12.13;;
16766;SDS011;8501;49.926;8.404;2024-03-22T07:07:17;22.30;;;12.73;;
16766;SDS011;8501;49.926;8.404;2024-03-22T07:09:43;23.37;;;13.10;;
16766;SDS011;8501;49.926;8.404;2024-03-22T07:12:08;21.13;;;12.50;;
16766;SDS011;8501;49.926;8.404;2024-03-22T07:14:34;21.70;;;12.63;;
16766;SDS011;8501;49.926;8.404;2024-03-22T07:16:59;23.97;;;13.17;;
16766;SDS011;8501;49.926;8.404;2024-03-22T07:19:25;21.20;;;12.60;;
16766;SDS011;8501;49.926;8.404;2024-03-22T07:21:52;24.20;;;11.50;;
16766;SDS011;8501;49.926;8.404;2024-03-22T07:24:17;22.13;;;12.43;;
16766;SDS011;8501;49.926;8.404;2024-03-22T07:26:43;22.63;;;13.10;;
16766;SDS011;8501;49.926;8.404;2024-03-22T07:29:08;22.03;;;12.20;;
16766;SDS011;8501;49.926;8.404;2024-03-22T07:31:34;22.30;;;12.77;;
16766;SDS011;8501;49.926;8.404;2024-03-22T07:33:59;21.37;;;12.13;;
16766;SDS011;8501;49.926;8.404;2024-03-22T07:36:25;20.30;;;12.30;;
16766;SDS011;8501;49.926;8.404;2024-03-22T07:38:51;21.80;;;12.67;;
16766;SDS011;8501;49.926;8.404;2024-03-22T07:41:17;21.90;;;12.77;;
16766;SDS011;8501;49.926;8.404;2024-03-22T07:43:43;23.27;;;12.50;;
16766;SDS011;8501;49.926;8.404;2024-03-22T07:46:08;21.20;;;12.43;;
16766;SDS011;8501;49.926;8.404;2024-03-22T07:48:34;19.10;;;12.37;;
16766;SDS011;8501;49.926;8.404;2024-03-22T07:51:00;19.57;;;12.30;;
16766;SDS011;8501;49.926;8.404;2024-03-22T07:53:26;20.47;;;12.40;;
16766;SDS011;8501;49.926;8.404;2024-03-22T07:55:52;21.17;;;12.30;;
16766;SDS011;8501;49.926;8.404;2024-03-22T07:58:18;20.37;;;12.40;;
16766;SDS011;8501;49.926;8.404;2024-03-22T08:00:44;19.13;;;12.03;;
16766;SDS011;8501;49.926;8.404;2024-03-22T08:03:16;19.33;;;11.93;;
16766;SDS011;8501;49.926;8.404;2024-03-22T08:05:42;18.20;;;10.93;;
16766;SDS011;8501;49.926;8.404;2024-03-22T08:08:08;19.63;;;11.60;;
16766;SDS011;8501;49.926;8.404;2024-03-22T08:10:33;17.87;;;11.10;;
16766;SDS011;8501;49.926;8.404;2024-03-22T08:12:59;19.33;;;11.57;;
16766;SDS011;8501;49.926;8.404;2024-03-22T08:15:28;21.47;;;12.60;;
16766;SDS011;8501;49.926;8.404;2024-03-22T08:17:55;19.73;;;11.50;;
16766;SDS011;8501;49.926;8.404;2024-03-22T08:20:22;18.20;;;11.63;;
16766;SDS011;8501;49.926;8.404;2024-03-22T08:22:48;20.43;;;12.10;;
16766;SDS011;8501;49.926;8.404;2024-03-22T08:25:14;19.17;;;11.50;;
16766;SDS011;8501;49.926;8.404;2024-03-22T08:27:42;18.37;;;12.00;;
16766;SDS011;8501;49.926;8.404;2024-03-22T08:30:09;19.73;;;12.60;;
16766;SDS011;8501;49.926;8.404;2024-03-22T08:32:35;19.77;;;11.93;;
16766;SDS011;8501;49.926;8.404;2024-03-22T08:35:01;22.13;;;12.90;;
16766;SDS011;8501;49.926;8.404;2024-03-22T08:37:26;19.67;;;12.37;;
16766;SDS011;8501;49.926;8.404;2024-03-22T08:39:52;24.07;;;12.50;;
16766;SDS011;8501;49.926;8.404;2024-03-22T08:42:17;21.03;;;12.57;;
16766;SDS011;8501;49.926;8.404;2024-03-22T08:44:43;22.60;;;13.10;;
16766;SDS011;8501;49.926;8.404;2024-03-22T08:47:09;21.70;;;12.57;;
16766;SDS011;8501;49.926;8.404;2024-03-22T08:49:35;22.33;;;13.23;;
16766;SDS011;8501;49.926;8.404;2024-03-22T08:52:01;21.90;;;12.87;;
16766;SDS011;8501;49.926;8.404;2024-03-22T08:54:27;21.00;;;13.47;;
16766;SDS011;8501;49.926;8.404;2024-03-22T08:56:52;23.87;;;12.80;;
16766;SDS011;8501;49.926;8.404;2024-03-22T08:59:18;20.73;;;13.30;;
16766;SDS011;8501;49.926;8.404;2024-03-22T09:01:44;21.40;;;12.73;;
16766;SDS011;8501;49.926;8.404;2024-03-22T09:04:09;20.87;;;13.10;;
16766;SDS011;8501;49.926;8.404;2024-03-22T09:06:35;21.47;;;12.70;;
16766;SDS011;8501;49.926;8.404;2024-03-22T09:09:00;19.77;;;12.33;;
16766;SDS011;8501;49.926;8.404;2024-03-22T09:11:26;17.70;;;11.67;;
16766;SDS011;8501;49.926;8.404;2024-03-22T09:13:54;22.40;;;13.37;;
16766;SDS011;8501;49.926;8.404;2024-03-22T09:16:20;18.87;;;12.10;;
16766;SDS011;8501;49.926;8.404;2024-03-22T09:18:46;22.10;;;12.50;;
16766;SDS011;8501;49.926;8.404;2024-03-22T09:21:11;20.37;;;12.33;;
16766;SDS011;8501;49.926;8.404;2024-03-22T09:23:37;18.27;;;11.67;;
16766;SDS011;8501;49.926;8.404;2024-03-22T09:26:03;18.80;;;11.97;;
16766;SDS011;8501;49.926;8.404;2024-03-22T09:28:28;19.03;;;12.13;;
16766;SDS011;8501;49.926;8.404;2024-03-22T09:30:54;19.67;;;11.83;;
16766;SDS011;8501;49.926;8.404;2024-03-22T09:33:19;19.87;;;12.27;;
16766;SDS011;8501;49.926;8.404;2024-03-22T09:35:45;21.37;;;12.63;;
16766;SDS011;8501;49.926;8.404;2024-03-22T09:38:10;17.50;;;11.87;;
16766;SDS011;8501;49.926;8.404;2024-03-22T09:40:39;19.07;;;12.70;;
16766;SDS011;8501;49.926;8.404;2024-03-22T09:43:04;17.90;;;11.67;;
16766;SDS011;8501;49.926;8.404;2024-03-22T09:45:32;20.33;;;11.80;;
16766;SDS011;8501;49.926;8.404;2024-03-22T09:47:57;18.10;;;12.47;;
16766;SDS011;8501;49.926;8.404;2024-03-22T09:50:23;20.70;;;11.73;;
16766;SDS011;8501;49.926;8.404;2024-03-22T09:52:50;17.57;;;11.23;;
16766;SDS011;8501;49.926;8.404;2024-03-22T09:55:18;17.33;;;11.50;;
16766;SDS011;8501;49.926;8.404;2024-03-22T09:57:48;17.30;;;11.30;;
16766;SDS011;8501;49.926;8.404;2024-03-22T10:00:20;20.57;;;11.83;;
16766;SDS011;8501;49.926;8.404;2024-03-22T10:02:50;16.53;;;11.37;;
16766;SDS011;8501;49.926;8.404;2024-03-22T10:05:16;16.97;;;11.30;;
16766;SDS011;8501;49.926;8.404;2024-03-22T10:07:45;20.07;;;12.00;;
16766;SDS011;8501;49.926;8.404;2024-03-22T10:10:11;19.23;;;11.80;;
16766;SDS011;8501;49.926;8.404;2024-03-22T10:12:39;18.13;;;11.30;;
16766;SDS011;8501;49.926;8.404;2024-03-22T10:15:05;19.33;;;11.30;;
16766;SDS011;8501;49.926;8.404;2024-03-22T10:17:34;19.93;;;12.17;;
16766;SDS011;8501;49.926;8.404;2024-03-22T10:20:00;19.87;;;12.00;;
16766;SDS011;8501;49.926;8.404;2024-03-22T10:22:26;18.37;;;11.37;;
16766;SDS011;8501;49.926;8.404;2024-03-22T10:24:52;21.00;;;12.30;;
16766;SDS011;8501;49.926;8.404;2024-03-22T10:27:18;20.53;;;12.40;;
16766;SDS011;8501;49.926;8.404;2024-03-22T10:29:44;17.43;;;11.47;;
16766;SDS011;8501;49.926;8.404;2024-03-22T10:32:11;18.17;;;12.30;;
16766;SDS011;8501;49.926;8.404;2024-03-22T10:34:37;20.90;;;12.90;;
16766;SDS011;8501;49.926;8.404;2024-03-22T10:37:04;20.13;;;11.60;;
16766;SDS011;8501;49.926;8.404;2024-03-22T10:39:32;19.30;;;11.73;;
16766;SDS011;8501;49.926;8.404;2024-03-22T10:41:58;18.07;;;12.43;;
16766;SDS011;8501;49.926;8.404;2024-03-22T10:44:24;21.67;;;11.93;;
16766;SDS011;8501;49.926;8.404;2024-03-22T10:46:49;17.63;;;11.03;;
16766;SDS011;8501;49.926;8.404;2024-03-22T10:49:19;18.57;;;11.07;;
16766;SDS011;8501;49.926;8.404;2024-03-22T10:51:52;17.00;;;10.50;;
16766;SDS011;8501;49.926;8.404;2024-03-22T10:54:24;19.23;;;11.33;;
16766;SDS011;8501;49.926;8.404;2024-03-22T10:56:52;18.53;;;10.80;;
16766;SDS011;8501;49.926;8.404;2024-03-22T10:59:19;16.73;;;11.03;;
16766;SDS011;8501;49.926;8.404;2024-03-22T11:01:46;17.57;;;10.33;;
16766;SDS011;8501;49.926;8.404;2024-03-22T11:04:12;18.53;;;11.30;;
16766;SDS011;8501;49.926;8.404;2024-03-22T11:06:38;16.90;;;10.80;;
16766;SDS011;8501;49.926;8.404;2024-03-22T11:09:03;17.17;;;10.13;;
16766;SDS011;8501;49.926;8.404;2024-03-22T11:11:29;17.85;;;10.88;;
16766;SDS011;8501;49.926;8.404;2024-03-22T11:13:56;17.88;;;10.38;;
16766;SDS011;8501;49.926;8.404;2024-03-22T11:16:22;19.07;;;10.07;;
16766;SDS011;8501;49.926;8.404;2024-03-22T11:18:48;15.57;;;9.57;;
16766;SDS011;8501;49.926;8.404;2024-03-22T11:21:14;15.77;;;9.30;;
16766;SDS011;8501;49.926;8.404;2024-03-22T11:23:40;14.95;;;9.25;;
16766;SDS011;8501;49.926;8.404;2024-03-22T11:26:05;15.38;;;9.43;;
16766;SDS011;8501;49.926;8.404;2024-03-22T11:28:32;19.40;;;10.10;;
16766;SDS011;8501;49.926;8.404;2024-03-22T11:30:58;15.65;;;9.65;;
16766;SDS011;8501;49.926;8.404;2024-03-22T11:33:24;15.52;;;9.85;;
16766;SDS011;8501;49.926;8.404;2024-03-22T11:35:51;15.30;;;9.98;;
16766;SDS011;8501;49.926;8.404;2024-03-22T11:38:17;16.10;;;9.95;;
16766;SDS011;8501;49.926;8.404;2024-03-22T11:40:43;16.42;;;11.00;;
16766;SDS011;8501;49.926;8.404;2024-03-22T11:43:10;17.08;;;10.93;;
16766;SDS011;8501;49.926;8.404;2024-03-22T11:45:36;17.55;;;10.85;;
16766;SDS011;8501;49.926;8.404;2024-03-22T11:48:02;19.40;;;12.25;;
16766;SDS011;8501;49.926;8.404;2024-03-22T11:50:28;19.13;;;11.43;;
16766;SDS011;8501;49.926;8.404;2024-03-22T11:52:54;16.70;;;10.43;;
16766;SDS011;8501;49.926;8.404;2024-03-22T11:55:20;18.27;;;10.90;;
16766;SDS011;8501;49.926;8.404;2024-03-22T11:57:49;16.90;;;11.60;;
16766;SDS011;8501;49.926;8.404;2024-03-22T12:00:15;16.55;;;10.40;;
16766;SDS011;8501;49.926;8.404;2024-03-22T12:02:42;17.08;;;11.02;;
16766;SDS011;8501;49.926;8.404;2024-03-22T12:05:09;16.67;;;10.93;;
16766;SDS011;8501;49.926;8.404;2024-03-22T12:07:34;17.45;;;11.40;;
16766;SDS011;8501;49.926;8.404;2024-03-22T12:10:00;19.40;;;11.95;;
16766;SDS011;8501;49.926;8.404;2024-03-22T12:12:26;18.60;;;10.90;;
16766;SDS011;8501;49.926;8.404;2024-03-22T12:14:51;19.38;;;11.75;;
16766;SDS011;8501;49.926;8.404;2024-03-22T12:17:17;21.10;;;11.45;;
16766;SDS011;8501;49.926;8.404;2024-03-22T12:19:43;18.30;;;12.18;;
16766;SDS011;8501;49.926;8.404;2024-03-22T12:22:09;18.02;;;11.93;;
16766;SDS011;8501;49.926;8.404;2024-03-22T12:24:35;19.98;;;12.23;;
16766;SDS011;8501;49.926;8.404;2024-03-22T12:27:01;20.80;;;13.45;;
16766;SDS011;8501;49.926;8.404;2024-03-22T12:29:27;17.63;;;11.68;;
16766;SDS011;8501;49.926;8.404;2024-03-22T12:31:52;20.67;;;11.55;;
16766;SDS011;8501;49.926;8.404;2024-03-22T12:34:18;19.70;;;11.35;;
16766;SDS011;8501;49.926;8.404;2024-03-22T12:36:43;19.30;;;12.45;;
16766;SDS011;8501;49.926;8.404;2024-03-22T12:39:09;21.40;;;15.13;;
16766;SDS011;8501;49.926;8.404;2024-03-22T12:41:34;24.65;;;13.43;;
16766;SDS011;8501;49.926;8.404;2024-03-22T12:44:00;17.77;;;11.77;;
16766;SDS011;8501;49.926;8.404;2024-03-22T12:46:26;20.58;;;12.38;;
16766;SDS011;8501;49.926;8.404;2024-03-22T12:48:52;18.88;;;12.35;;
16766;SDS011;8501;49.926;8.404;2024-03-22T12:51:19;21.55;;;12.15;;
16766;SDS011;8501;49.926;8.404;2024-03-22T12:53:45;22.45;;;17.85;;
16766;SDS011;8501;49.926;8.404;2024-03-22T12:56:11;20.15;;;13.77;;
16766;SDS011;8501;49.926;8.404;2024-03-22T12:58:37;19.58;;;12.73;;
16766;SDS011;8501;49.926;8.404;2024-03-22T13:01:02;19.27;;;11.93;;
16766;SDS011;8501;49.926;8.404;2024-03-22T13:03:30;23.05;;;13.38;;
16766;SDS011;8501;49.926;8.404;2024-03-22T13:05:57;20.63;;;12.95;;
16766;SDS011;8501;49.926;8.404;2024-03-22T13:08:22;21.77;;;12.95;;
16766;SDS011;8501;49.926;8.404;2024-03-22T13:10:48;19.45;;;12.80;;
16766;SDS011;8501;49.926;8.404;2024-03-22T13:13:13;19.70;;;13.05;;
16766;SDS011;8501;49.926;8.404;2024-03-22T13:15:41;19.38;;;13.20;;
16766;SDS011;8501;49.926;8.404;2024-03-22T13:18:07;20.30;;;13.05;;
16766;SDS011;8501;49.926;8.404;2024-03-22T13:20:34;22.73;;;13.23;;
16766;SDS011;8501;49.926;8.404;2024-03-22T13:23:00;20.48;;;13.52;;
16766;SDS011;8501;49.926;8.404;2024-03-22T13:25:26;22.58;;;14.27;;
16766;SDS011;8501;49.926;8.404;2024-03-22T13:27:52;22.70;;;13.88;;
16766;SDS011;8501;49.926;8.404;2024-03-22T13:30:18;20.30;;;13.48;;
16766;SDS011;8501;49.926;8.404;2024-03-22T13:32:43;21.25;;;14.23;;
16766;SDS011;8501;49.926;8.404;2024-03-22T13:35:09;23.58;;;14.23;;
16766;SDS011;8501;49.926;8.404;2024-03-22T13:37:35;24.77;;;15.00;;
16766;SDS011;8501;49.926;8.404;2024-03-22T13:40:00;28.38;;;16.55;;
16766;SDS011;8501;49.926;8.404;2024-03-22T13:42:26;23.45;;;15.68;;
16766;SDS011;8501;49.926;8.404;2024-03-22T13:44:51;27.48;;;15.45;;
16766;SDS011;8501;49.926;8.404;2024-03-22T13:47:17;25.77;;;15.20;;
16766;SDS011;8501;49.926;8.404;2024-03-22T13:49:43;23.42;;;15.07;;
16766;SDS011;8501;49.926;8.404;2024-03-22T13:52:09;26.58;;;15.40;;
16766;SDS011;8501;49.926;8.404;2024-03-22T13:54:35;26.45;;;15.82;;
16766;SDS011;8501;49.926;8.404;2024-03-22T13:57:01;27.83;;;15.48;;
16766;SDS011;8501;49.926;8.404;2024-03-22T13:59:28;23.88;;;14.90;;
16766;SDS011;8501;49.926;8.404;2024-03-22T14:01:55;30.77;;;16.48;;
16766;SDS011;8501;49.926;8.404;2024-03-22T14:04:21;29.10;;;15.93;;
16766;SDS011;8501;49.926;8.404;2024-03-22T14:06:47;26.23;;;15.32;;
16766;SDS011;8501;49.926;8.404;2024-03-22T14:09:13;26.88;;;16.35;;
16766;SDS011;8501;49.926;8.404;2024-03-22T14:11:40;29.10;;;16.50;;
16766;SDS011;8501;49.926;8.404;2024-03-22T14:14:07;29.00;;;16.17;;
16766;SDS011;8501;49.926;8.404;2024-03-22T14:16:34;27.98;;;16.42;;
16766;SDS011;8501;49.926;8.404;2024-03-22T14:18:59;25.25;;;16.33;;
16766;SDS011;8501;49.926;8.404;2024-03-22T14:21:26;27.60;;;16.58;;
16766;SDS011;8501;49.926;8.404;2024-03-22T14:23:52;25.88;;;15.98;;
16766;SDS011;8501;49.926;8.404;2024-03-22T14:26:18;29.67;;;16.83;;
16766;SDS011;8501;49.926;8.404;2024-03-22T14:28:44;28.92;;;17.27;;